Time;durP1;ratioP1;P1;durP2;ratioP2;P2;SDS_P1;SDS_P2;PMS_P1;PMS_P2;Temp;Humidity;BMP_temperature;BMP_pressure;BME280_temperature;BME280_humidity;BME280_pressure;Samples;Min_cycle;Max_cycle;Signal;HPM_P1;HPM_P2
2023/06/04 00:04:47;;;;;;;13.77;12.40;;;24.00;67.20;;;;;;4799293;58;21090;-34
2023/06/04 00:09:48;;;;;;;13.07;11.70;;;24.00;67.20;;;;;;4895805;54;21019;-34
2023/06/04 00:14:49;;;;;;;13.70;11.98;;;24.00;67.10;;;;;;5001254;54;21035;-34
2023/06/04 00:19:49;;;;;;;12.23;11.07;;;24.00;67.00;;;;;;4871100;54;21054;-34
2023/06/04 00:24:50;;;;;;;14.15;12.75;;;24.00;67.00;;;;;;4805228;54;21090;-35
2023/06/04 00:29:51;;;;;;;12.93;11.63;;;24.00;67.00;;;;;;4823343;54;21878;-33
2023/06/04 00:34:54;;;;;;;12.32;11.10;;;24.00;67.00;;;;;;4863893;54;21378;-32
2023/06/04 00:39:55;;;;;;;13.15;11.77;;;24.00;67.00;;;;;;4897747;54;21544;-35
2023/06/04 00:44:57;;;;;;;12.70;11.45;;;24.00;66.90;;;;;;4824930;54;21034;-34
2023/06/04 00:49:58;;;;;;;13.52;11.73;;;24.00;66.90;;;;;;4848993;54;21501;-36
2023/06/04 00:55:00;;;;;;;11.75;10.63;;;24.00;66.90;;;;;;4799656;58;21011;-34
2023/06/04 01:00:02;;;;;;;11.65;10.45;;;24.00;66.70;;;;;;4931011;54;21660;-35
2023/06/04 01:06:47;;;;;;;12.37;11.15;;;24.00;66.90;;;;;;4886629;54;21500;-32
2023/06/04 01:11:48;;;;;;;11.93;10.73;;;24.00;66.70;;;;;;4799328;58;21007;-34
2023/06/04 01:17:02;;;;;;;11.60;10.50;;;24.00;67.50;;;;;;4838801;54;21014;-35
2023/06/04 01:22:16;;;;;;;11.68;10.57;;;24.00;66.70;;;;;;4952818;54;21670;-35
2023/06/04 01:27:17;;;;;;;11.45;10.38;;;24.00;66.80;;;;;;4855697;54;21562;-34
2023/06/04 01:32:19;;;;;;;12.48;11.27;;;24.00;66.70;;;;;;4799487;58;21540;-35
2023/06/04 01:37:20;;;;;;;12.80;11.23;;;24.00;66.70;;;;;;4906711;54;20999;-35
2023/06/04 01:42:20;;;;;;;11.25;10.05;;;24.00;66.60;;;;;;4798517;58;21150;-34
2023/06/04 01:47:21;;;;;;;10.73;9.35;;;24.00;66.60;;;;;;4805727;54;21126;-33
2023/06/04 01:52:22;;;;;;;11.00;10.00;;;24.00;66.70;;;;;;5139061;54;21010;-34
2023/06/04 01:57:23;;;;;;;11.43;10.32;;;23.90;66.50;;;;;;5025170;54;21038;-34
2023/06/04 02:02:25;;;;;;;12.07;10.18;;;24.00;66.50;;;;;;4798650;58;21035;-33
2023/06/04 02:07:25;;;;;;;10.40;9.32;;;23.90;66.50;;;;;;4884166;54;21517;-35
2023/06/04 02:12:26;;;;;;;11.75;9.90;;;23.90;66.40;;;;;;4799083;58;21030;-35
2023/06/04 02:17:27;;;;;;;11.15;10.13;;;23.90;66.40;;;;;;4801868;54;21007;-36
2023/06/04 02:22:28;;;;;;;10.82;9.73;;;23.90;66.30;;;;;;4805067;54;21018;-32
2023/06/04 02:27:29;;;;;;;10.13;9.23;;;23.90;66.40;;;;;;4799221;58;21057;-36
2023/06/04 02:32:29;;;;;;;10.50;9.48;;;23.90;66.40;;;;;;4799455;58;21002;-32
2023/06/04 02:37:30;;;;;;;10.00;9.00;;;23.90;66.30;;;;;;4959554;54;21018;-33
2023/06/04 02:42:31;;;;;;;9.77;8.77;;;23.90;66.30;;;;;;4886595;54;21011;-36
2023/06/04 02:47:32;;;;;;;10.45;9.45;;;23.90;66.10;;;;;;4834341;54;21046;-36
2023/06/04 02:52:36;;;;;;;10.38;9.40;;;23.90;66.10;;;;;;4867134;54;21010;-36
2023/06/04 02:57:41;;;;;;;10.00;9.10;;;23.90;66.10;;;;;;4830585;54;21469;-36
2023/06/04 03:02:43;;;;;;;12.00;9.00;;;23.90;66.10;;;;;;4809912;54;21022;-37
2023/06/04 03:07:45;;;;;;;9.93;8.93;;;23.90;66.10;;;;;;4818441;54;21003;-33
2023/06/04 03:12:46;;;;;;;9.20;8.40;;;23.90;66.00;;;;;;4800207;54;21067;-29
2023/06/04 03:17:47;;;;;;;10.07;9.07;;;23.90;65.90;;;;;;4841895;54;20979;-33
2023/06/04 03:22:48;;;;;;;9.77;8.77;;;23.90;65.90;;;;;;5143315;54;21038;-32
2023/06/04 03:27:48;;;;;;;9.98;9.07;;;23.90;65.90;;;;;;4861869;54;21536;-33
2023/06/04 03:32:49;;;;;;;9.63;8.73;;;23.90;65.90;;;;;;4904847;54;20999;-32
2023/06/04 03:37:50;;;;;;;9.40;8.60;;;23.90;65.80;;;;;;4829889;54;21789;-33
2023/06/04 03:42:51;;;;;;;10.95;8.85;;;23.90;65.80;;;;;;4798211;58;21018;-32
2023/06/04 03:47:52;;;;;;;10.23;9.13;;;23.90;65.80;;;;;;4954850;54;21026;-32
2023/06/04 03:52:52;;;;;;;8.90;8.00;;;23.90;65.70;;;;;;4948269;54;21014;-34
2023/06/04 03:57:56;;;;;;;9.98;8.32;;;23.90;65.60;;;;;;5110648;54;21002;-33
2023/06/04 04:02:57;;;;;;;10.35;8.20;;;23.90;65.70;;;;;;4947335;54;21316;-36
2023/06/04 04:07:58;;;;;;;8.73;7.82;;;23.90;65.60;;;;;;4799693;55;21018;-31
2023/06/04 04:12:58;;;;;;;9.68;8.70;;;23.90;65.50;;;;;;4925000;54;20990;-35
2023/06/04 04:17:59;;;;;;;10.38;8.68;;;23.90;65.50;;;;;;4913581;54;21429;-33
2023/06/04 04:23:00;;;;;;;9.02;8.00;;;23.90;65.50;;;;;;4823839;54;21046;-32
2023/06/04 04:28:02;;;;;;;10.20;8.73;;;23.90;65.50;;;;;;4890972;54;20982;-33
2023/06/04 04:33:05;;;;;;;9.00;7.93;;;23.90;65.50;;;;;;5109761;54;21078;-33
2023/06/04 04:38:05;;;;;;;8.57;7.78;;;23.90;65.50;;;;;;4889409;54;21451;-33
2023/06/04 04:43:06;;;;;;;9.00;8.13;;;23.80;65.30;;;;;;4798208;58;21090;-33
2023/06/04 04:48:08;;;;;;;8.10;7.30;;;23.90;65.20;;;;;;4798657;58;21588;-33
2023/06/04 04:53:08;;;;;;;9.18;8.27;;;23.80;65.10;;;;;;4799431;58;21006;-33
2023/06/04 04:58:09;;;;;;;9.05;8.25;;;23.90;65.20;;;;;;4799323;58;21500;-35
2023/06/04 05:03:10;;;;;;;8.52;7.80;;;23.90;65.10;;;;;;4897661;54;21011;-35
2023/06/04 05:08:15;;;;;;;8.85;7.87;;;23.80;65.10;;;;;;4846545;54;21086;-33
2023/06/04 05:13:16;;;;;;;8.95;8.05;;;23.80;65.00;;;;;;4799139;58;21548;-33
2023/06/04 05:18:20;;;;;;;8.93;8.02;;;23.80;65.00;;;;;;4799688;58;21585;-35
2023/06/04 05:23:21;;;;;;;8.65;7.87;;;23.80;65.00;;;;;;4903179;54;21548;-37
2023/06/04 05:28:24;;;;;;;8.73;7.82;;;23.80;65.00;;;;;;4810500;54;21018;-37
2023/06/04 05:33:30;;;;;;;9.10;8.20;;;23.80;64.80;;;;;;4799356;58;21564;-36
2023/06/04 05:38:31;;;;;;;9.48;8.05;;;23.80;64.90;;;;;;4816159;54;21122;-32
2023/06/04 05:43:32;;;;;;;8.95;8.05;;;23.80;64.90;;;;;;4902118;54;21643;-32
2023/06/04 05:48:34;;;;;;;9.27;8.38;;;23.80;64.90;;;;;;4898741;54;21493;-32
2023/06/04 05:53:35;;;;;;;8.93;8.05;;;23.80;64.80;;;;;;5085622;54;21042;-33
2023/06/04 05:58:39;;;;;;;9.55;8.25;;;23.80;64.90;;;;;;4824265;54;21010;-32
2023/06/04 06:03:40;;;;;;;8.90;8.10;;;23.80;64.80;;;;;;4844288;54;20998;-32
2023/06/04 06:08:41;;;;;;;9.70;8.68;;;23.80;64.80;;;;;;4799256;58;21034;-31
2023/06/04 06:13:41;;;;;;;9.27;8.35;;;23.80;64.80;;;;;;5057666;54;20990;-32
2023/06/04 06:18:42;;;;;;;8.73;7.82;;;23.80;64.80;;;;;;4863352;54;21066;-32
2023/06/04 06:23:43;;;;;;;9.32;8.32;;;23.80;65.40;;;;;;5006565;54;21101;-33
2023/06/04 06:28:44;;;;;;;9.00;8.10;;;23.80;64.70;;;;;;4859809;54;21077;-33
2023/06/04 06:33:45;;;;;;;9.30;8.40;;;23.90;64.80;;;;;;5002636;54;21070;-36
2023/06/04 06:38:46;;;;;;;9.85;8.82;;;23.80;64.80;;;;;;4869058;54;21007;-33
2023/06/04 06:43:47;;;;;;;8.88;8.07;;;23.90;64.90;;;;;;4803804;54;21110;-34
2023/06/04 06:48:48;;;;;;;11.57;8.30;;;23.90;64.80;;;;;;4820629;54;21066;-35
2023/06/04 06:53:50;;;;;;;8.73;7.70;;;23.80;64.80;;;;;;4799174;55;20995;-33
2023/06/04 06:58:51;;;;;;;9.00;8.02;;;23.90;64.80;;;;;;4818695;54;21469;-32
2023/06/04 07:03:52;;;;;;;9.18;8.27;;;23.90;64.80;;;;;;4866431;54;21054;-31
2023/06/04 07:08:53;;;;;;;9.77;8.73;;;23.90;64.80;;;;;;4885173;54;21066;-33
2023/06/04 07:13:54;;;;;;;9.38;8.38;;;23.90;64.80;;;;;;4801766;54;21488;-31
2023/06/04 07:18:55;;;;;;;9.50;8.00;;;23.90;64.80;;;;;;4824422;54;21090;-34
2023/06/04 07:23:56;;;;;;;9.18;8.27;;;23.90;64.80;;;;;;4799313;58;21476;-36
2023/06/04 07:28:57;;;;;;;8.75;7.90;;;23.90;64.80;;;;;;5057104;54;21472;-36
2023/06/04 07:33:58;;;;;;;10.02;8.68;;;23.90;64.90;;;;;;4848042;54;20994;-35
2023/06/04 07:38:59;;;;;;;8.85;7.95;;;23.90;64.90;;;;;;4799162;55;21488;-32
2023/06/04 07:44:00;;;;;;;9.02;7.93;;;23.90;64.90;;;;;;4977838;54;21491;-31
2023/06/04 07:49:01;;;;;;;9.50;8.10;;;23.90;64.90;;;;;;4859954;54;21034;-31
2023/06/04 07:54:02;;;;;;;9.00;8.10;;;23.90;65.60;;;;;;4812121;54;21520;-35
2023/06/04 07:59:03;;;;;;;9.75;8.75;;;23.90;65.00;;;;;;4985214;54;21074;-36
2023/06/04 08:04:04;;;;;;;9.05;8.15;;;23.90;65.00;;;;;;4872887;54;21081;-32
2023/06/04 08:09:04;;;;;;;8.98;8.13;;;23.90;65.00;;;;;;4909983;54;21062;-33
2023/06/04 08:14:05;;;;;;;9.77;8.77;;;23.90;65.00;;;;;;4960600;54;21055;-33
2023/06/04 08:19:07;;;;;;;9.88;8.90;;;23.90;65.00;;;;;;4814081;54;21022;-33
2023/06/04 08:24:09;;;;;;;9.15;8.25;;;23.90;65.10;;;;;;5065609;54;21441;-32
2023/06/04 08:29:09;;;;;;;8.88;7.97;;;23.90;65.10;;;;;;4926996;54;21540;-33
2023/06/04 08:34:10;;;;;;;9.55;8.55;;;23.90;65.10;;;;;;4859772;54;21010;-33
2023/06/04 08:39:11;;;;;;;8.40;7.57;;;23.90;65.10;;;;;;4965833;54;21067;-34
2023/06/04 08:44:16;;;;;;;8.55;7.75;;;23.90;65.10;;;;;;4799189;58;21584;-32
2023/06/04 08:49:18;;;;;;;9.02;8.13;;;23.90;65.10;;;;;;5018460;54;21134;-33
2023/06/04 08:54:18;;;;;;;9.18;8.02;;;23.90;65.20;;;;;;4813524;54;21185;-36
2023/06/04 08:59:19;;;;;;;9.27;8.32;;;23.90;65.20;;;;;;4867685;54;21038;-38
2023/06/04 09:04:20;;;;;;;8.98;7.53;;;23.90;65.20;;;;;;4806956;54;21078;-34
2023/06/04 09:09:23;;;;;;;8.75;7.95;;;23.90;65.20;;;;;;4799161;58;21113;-33
2023/06/04 09:14:24;;;;;;;8.68;7.70;;;23.90;65.30;;;;;;4842936;54;20999;-34
2023/06/04 09:19:25;;;;;;;9.23;8.02;;;23.90;65.30;;;;;;4811608;54;21480;-36
2023/06/04 09:24:43;;;;;;;9.45;7.90;;;23.90;65.30;;;;;;4839686;54;21108;-35
2023/06/04 09:29:51;;;;;;;8.32;7.53;;;23.90;65.30;;;;;;4825628;54;20998;-36
2023/06/04 09:34:52;;;;;;;9.13;8.23;;;24.00;65.40;;;;;;4804942;54;22224;-37
2023/06/04 09:39:56;;;;;;;8.80;7.90;;;24.00;65.40;;;;;;4917381;54;21090;-35
2023/06/04 09:45:01;;;;;;;8.65;7.85;;;24.00;65.40;;;;;;4846982;54;21583;-35
2023/06/04 09:50:02;;;;;;;8.48;7.68;;;24.00;65.40;;;;;;4814774;53;21528;-34
2023/06/04 09:55:14;;;;;;;8.48;7.68;;;24.00;65.50;;;;;;4802412;54;21548;-36
2023/06/04 10:00:23;;;;;;;8.85;8.02;;;24.00;65.40;;;;;;4827138;54;21071;-34
2023/06/04 10:05:26;;;;;;;8.43;7.62;;;24.00;65.50;;;;;;4799268;58;21023;-34
2023/06/04 10:10:27;;;;;;;8.65;7.85;;;24.00;65.50;;;;;;4819839;54;21012;-35
2023/06/04 10:15:30;;;;;;;8.50;7.70;;;24.00;65.50;;;;;;4799182;58;20995;-35
2023/06/04 10:20:31;;;;;;;8.68;7.87;;;24.00;65.50;;;;;;4798901;58;21571;-34
2023/06/04 10:25:32;;;;;;;9.07;7.78;;;24.00;65.50;;;;;;4799182;55;21003;-36
2023/06/04 10:30:33;;;;;;;8.63;7.82;;;24.00;65.50;;;;;;4799516;55;21544;-37
2023/06/04 10:35:35;;;;;;;8.02;7.32;;;24.00;65.50;;;;;;4859365;54;21454;-36
2023/06/04 10:40:37;;;;;;;8.98;8.07;;;24.00;65.50;;;;;;4908956;54;21157;-35
2023/06/04 10:45:38;;;;;;;8.85;8.05;;;24.00;65.50;;;;;;4836454;54;21549;-32
2023/06/04 10:50:52;;;;;;;7.65;6.93;;;24.00;65.50;;;;;;4854027;54;21046;-37
2023/06/04 10:55:53;;;;;;;8.77;7.97;;;24.00;65.60;;;;;;4846159;54;21124;-35
2023/06/04 11:00:54;;;;;;;8.60;7.80;;;24.00;65.40;;;;;;4857384;54;21091;-35
2023/06/04 11:05:56;;;;;;;8.80;8.00;;;24.00;65.60;;;;;;4885843;54;20983;-35
2023/06/04 11:10:57;;;;;;;8.85;8.05;;;24.00;65.60;;;;;;4841186;54;21521;-35
2023/06/04 11:15:58;;;;;;;8.23;7.53;;;24.00;65.60;;;;;;4901863;54;20991;-36
2023/06/04 11:21:01;;;;;;;8.82;8.02;;;24.00;65.70;;;;;;4817354;54;21894;-36
2023/06/04 11:26:02;;;;;;;8.43;7.62;;;24.00;65.80;;;;;;4890740;54;21535;-36
2023/06/04 11:31:05;;;;;;;8.20;7.40;;;24.00;65.80;;;;;;4798766;58;21152;-34
2023/06/04 11:36:09;;;;;;;8.48;7.78;;;24.00;65.80;;;;;;4824608;54;21046;-35
2023/06/04 11:41:09;;;;;;;8.95;8.15;;;24.00;65.60;;;;;;4798239;58;21019;-33
2023/06/04 11:46:10;;;;;;;7.47;6.85;;;24.10;65.60;;;;;;4798690;58;21596;-35
2023/06/04 11:51:12;;;;;;;8.20;7.50;;;24.00;65.70;;;;;;4844167;54;20979;-30
2023/06/04 11:56:14;;;;;;;8.55;7.75;;;24.00;65.70;;;;;;4897717;54;21121;-35
2023/06/04 12:01:15;;;;;;;8.10;7.40;;;24.10;65.60;;;;;;4836574;54;21019;-34
2023/06/04 12:06:19;;;;;;;8.45;7.65;;;24.10;65.50;;;;;;4870354;54;21007;-36
2023/06/04 12:11:38;;;;;;;8.63;7.82;;;24.20;65.30;;;;;;4850940;54;21347;-36
2023/06/04 12:16:39;;;;;;;9.23;8.38;;;24.20;65.10;;;;;;5112052;54;21113;-36
2023/06/04 12:21:41;;;;;;;8.68;7.87;;;24.20;65.20;;;;;;4812606;54;21484;-35
2023/06/04 12:26:45;;;;;;;9.05;8.15;;;24.20;65.00;;;;;;4844366;54;21007;-35
2023/06/04 12:31:46;;;;;;;8.68;7.87;;;24.20;65.10;;;;;;4820275;54;21505;-35
2023/06/04 12:36:47;;;;;;;8.88;8.07;;;24.20;65.00;;;;;;4831237;54;20970;-34
2023/06/04 12:41:50;;;;;;;8.65;7.85;;;24.20;65.00;;;;;;4865531;54;21473;-35
2023/06/04 12:46:51;;;;;;;9.02;8.20;;;24.20;65.10;;;;;;4798789;58;21544;-34
2023/06/04 12:51:52;;;;;;;8.75;7.95;;;24.20;65.30;;;;;;4836581;54;20999;-35
2023/06/04 12:56:53;;;;;;;9.10;8.20;;;24.20;65.60;;;;;;4798914;58;21014;-34
2023/06/04 13:01:54;;;;;;;8.23;7.43;;;24.20;65.20;;;;;;4800037;54;21007;-35
2023/06/04 13:06:58;;;;;;;9.02;8.20;;;24.20;65.10;;;;;;4840921;54;21031;-35
2023/06/04 13:11:59;;;;;;;8.90;8.00;;;24.20;65.10;;;;;;4857260;54;21520;-34
2023/06/04 13:17:00;;;;;;;9.43;8.52;;;24.20;65.10;;;;;;4848829;54;21026;-34
2023/06/04 13:22:01;;;;;;;9.48;8.57;;;24.20;65.10;;;;;;4870675;54;21539;-32
2023/06/04 13:27:04;;;;;;;8.98;8.18;;;24.20;65.20;;;;;;4805752;54;21319;-33
2023/06/04 13:32:05;;;;;;;9.20;8.40;;;24.20;65.30;;;;;;4846009;54;21460;-35
2023/06/04 13:37:06;;;;;;;9.27;8.38;;;24.20;65.30;;;;;;4850249;54;21038;-36
2023/06/04 13:42:07;;;;;;;8.80;8.00;;;24.20;65.30;;;;;;4881317;54;21529;-32
2023/06/04 13:47:08;;;;;;;9.38;8.48;;;24.20;65.20;;;;;;4798539;58;21098;-34
2023/06/04 13:52:09;;;;;;;9.32;8.52;;;24.20;65.20;;;;;;4833858;54;21007;-37
2023/06/04 13:57:13;;;;;;;8.93;8.13;;;24.20;65.10;;;;;;4799048;58;21488;-34
2023/06/04 14:02:14;;;;;;;8.77;7.87;;;24.20;65.10;;;;;;4798869;58;21552;-36
2023/06/04 14:07:16;;;;;;;8.50;7.80;;;24.30;65.20;;;;;;4832470;54;21516;-33
2023/06/04 14:12:18;;;;;;;9.45;8.57;;;24.20;65.10;;;;;;4894415;54;21086;-36
2023/06/04 14:17:19;;;;;;;9.07;8.27;;;24.30;65.10;;;;;;4839274;54;21461;-36
2023/06/04 14:22:20;;;;;;;9.45;8.65;;;24.20;65.10;;;;;;4933063;54;21019;-29
2023/06/04 14:27:21;;;;;;;9.05;8.15;;;24.30;65.20;;;;;;4799138;58;21556;-31
2023/06/04 14:32:22;;;;;;;9.10;8.30;;;24.30;65.10;;;;;;4799038;58;21079;-32
2023/06/04 14:37:22;;;;;;;9.25;8.35;;;24.30;65.20;;;;;;4811234;54;21477;-36
2023/06/04 14:42:23;;;;;;;9.45;8.57;;;24.30;65.20;;;;;;4821379;54;21544;-36
2023/06/04 14:47:24;;;;;;;9.27;8.40;;;24.30;65.20;;;;;;4824854;54;21118;-36
2023/06/04 14:52:25;;;;;;;8.43;7.62;;;24.30;65.30;;;;;;5063523;54;21560;-32
2023/06/04 14:57:26;;;;;;;8.50;7.72;;;24.20;65.20;;;;;;4868113;54;21027;-35
2023/06/04 15:02:29;;;;;;;9.00;8.18;;;24.30;65.40;;;;;;4798746;58;21508;-36
2023/06/04 15:07:30;;;;;;;9.75;8.80;;;24.30;65.30;;;;;;4799384;54;21571;-36
2023/06/04 15:12:32;;;;;;;9.27;8.48;;;24.30;65.20;;;;;;4907894;54;21022;-32
2023/06/04 15:17:34;;;;;;;9.85;8.85;;;24.30;65.20;;;;;;4834038;54;21465;-35
2023/06/04 15:22:35;;;;;;;9.43;8.50;;;24.30;65.10;;;;;;4823038;54;21707;-32
2023/06/04 15:27:38;;;;;;;9.13;8.23;;;24.30;65.20;;;;;;4802653;54;21007;-35
2023/06/04 15:32:41;;;;;;;8.95;8.15;;;24.30;65.20;;;;;;4799353;54;21622;-33
2023/06/04 15:37:42;;;;;;;9.18;8.30;;;24.30;65.10;;;;;;4816458;54;21489;-35
2023/06/04 15:42:43;;;;;;;8.93;8.10;;;24.30;65.20;;;;;;4810314;54;21075;-36
2023/06/04 15:47:44;;;;;;;9.15;8.35;;;24.30;65.30;;;;;;4798553;58;21572;-33
2023/06/04 15:52:47;;;;;;;8.80;8.00;;;24.30;65.40;;;;;;4977074;54;21007;-32
2023/06/04 15:57:48;;;;;;;8.93;8.13;;;24.30;65.40;;;;;;4932089;54;20991;-34
2023/06/04 16:02:49;;;;;;;9.43;8.55;;;24.30;65.40;;;;;;4817204;54;21031;-33
2023/06/04 16:07:50;;;;;;;9.05;8.15;;;24.20;65.40;;;;;;4828715;54;21349;-32
2023/06/04 16:12:54;;;;;;;9.23;8.32;;;24.30;65.50;;;;;;4826983;54;21497;-32
2023/06/04 16:17:55;;;;;;;9.25;8.35;;;24.30;65.50;;;;;;4845497;54;21478;-34
2023/06/04 16:22:56;;;;;;;9.32;8.52;;;24.30;65.50;;;;;;4810359;54;21026;-33
2023/06/04 16:27:56;;;;;;;9.65;8.68;;;24.30;65.50;;;;;;4799725;58;21033;-34
2023/06/04 16:32:57;;;;;;;9.23;8.30;;;24.20;65.50;;;;;;4808173;54;21018;-32
2023/06/04 16:37:59;;;;;;;9.02;8.23;;;24.30;65.50;;;;;;4877840;54;21066;-34
2023/06/04 16:42:59;;;;;;;9.00;8.20;;;24.30;65.40;;;;;;4837323;54;21023;-33
2023/06/04 16:48:02;;;;;;;9.05;8.25;;;24.30;65.40;;;;;;4823280;54;21541;-32
2023/06/04 16:53:03;;;;;;;8.88;8.07;;;24.30;65.50;;;;;;4799312;58;21006;-34
2023/06/04 16:58:04;;;;;;;8.95;8.15;;;24.30;65.50;;;;;;4879158;54;21014;-33
2023/06/04 17:03:05;;;;;;;8.93;8.13;;;24.30;65.40;;;;;;4843737;54;21533;-34
2023/06/04 17:08:06;;;;;;;8.75;7.95;;;24.30;65.50;;;;;;4809060;54;21014;-35
2023/06/04 17:13:08;;;;;;;9.30;8.43;;;24.20;65.60;;;;;;4826632;54;21066;-31
2023/06/04 17:18:11;;;;;;;8.23;7.53;;;24.30;65.70;;;;;;4985677;54;21560;-32
2023/06/04 17:23:24;;;;;;;9.25;8.45;;;24.30;65.50;;;;;;4798221;58;21130;-33
2023/06/04 17:28:27;;;;;;;9.10;8.30;;;24.30;65.50;;;;;;4799453;58;21481;-32
2023/06/04 17:33:28;;;;;;;9.00;8.20;;;24.30;65.50;;;;;;4829352;54;21023;-33
2023/06/04 17:38:28;;;;;;;8.52;7.72;;;24.30;65.70;;;;;;4961134;54;20978;-36
2023/06/04 17:43:29;;;;;;;8.52;7.72;;;24.30;65.70;;;;;;4867062;54;21674;-35
2023/06/04 17:48:31;;;;;;;7.85;7.15;;;24.30;65.70;;;;;;4815615;54;21106;-33
2023/06/04 17:53:32;;;;;;;8.15;7.45;;;24.20;65.70;;;;;;4846892;54;21537;-33
2023/06/04 17:58:33;;;;;;;9.25;8.38;;;24.30;65.70;;;;;;4799451;58;21958;-33
2023/06/04 18:03:34;;;;;;;8.82;8.02;;;24.30;65.70;;;;;;4798403;58;21485;-34
2023/06/04 18:08:35;;;;;;;8.40;7.70;;;24.30;65.70;;;;;;4807416;54;20983;-33
2023/06/04 18:13:36;;;;;;;9.05;8.23;;;24.30;65.80;;;;;;4847876;54;21340;-33
2023/06/04 18:18:36;;;;;;;8.88;8.07;;;24.20;66.00;;;;;;4842618;54;20999;-33
2023/06/04 18:23:37;;;;;;;8.55;7.82;;;24.20;66.20;;;;;;4834590;54;21020;-35
2023/06/04 18:28:38;;;;;;;8.43;7.72;;;24.20;66.20;;;;;;4901350;54;21473;-32
2023/06/04 18:33:52;;;;;;;8.60;7.80;;;24.10;66.30;;;;;;4833755;54;21019;-33
2023/06/04 18:38:53;;;;;;;9.02;8.23;;;24.10;66.30;;;;;;4799364;54;21457;-33
2023/06/04 18:43:53;;;;;;;8.60;7.90;;;24.10;66.30;;;;;;4804907;54;21042;-34
2023/06/04 18:48:56;;;;;;;9.05;8.25;;;24.10;66.30;;;;;;4899784;54;21489;-35
2023/06/04 18:53:57;;;;;;;8.48;7.70;;;24.20;66.40;;;;;;4799220;58;21492;-34
2023/06/04 18:59:00;;;;;;;9.10;8.30;;;24.10;66.40;;;;;;4911226;54;21006;-33
2023/06/04 19:04:01;;;;;;;8.23;7.53;;;24.10;66.50;;;;;;4832860;53;21023;-33
2023/06/04 19:09:02;;;;;;;8.88;8.07;;;24.10;66.50;;;;;;4920763;54;20995;-42
2023/06/04 19:14:03;;;;;;;8.90;8.10;;;24.10;66.50;;;;;;4851538;54;21066;-34
2023/06/04 19:19:08;;;;;;;9.25;8.35;;;24.10;66.50;;;;;;4921262;54;21062;-34
2023/06/04 19:24:09;;;;;;;9.38;8.57;;;24.10;66.50;;;;;;4798628;58;21145;-37
2023/06/04 19:29:10;;;;;;;9.38;8.55;;;24.10;66.60;;;;;;5181472;54;21472;-33
2023/06/04 19:34:11;;;;;;;9.05;8.23;;;24.10;66.50;;;;;;4952323;54;21090;-35
2023/06/04 19:39:12;;;;;;;8.88;8.07;;;24.10;66.50;;;;;;4984390;54;21046;-34
2023/06/04 19:44:12;;;;;;;9.07;8.18;;;24.10;66.60;;;;;;4799695;54;21181;-34
2023/06/04 19:49:14;;;;;;;10.02;9.02;;;24.10;66.50;;;;;;4993367;53;21027;-34
2023/06/04 19:54:14;;;;;;;9.68;8.77;;;24.10;66.60;;;;;;4858215;54;21073;-34
2023/06/04 19:59:15;;;;;;;9.15;8.35;;;24.10;66.50;;;;;;4818138;54;21054;-37
2023/06/04 20:04:16;;;;;;;10.10;9.20;;;24.10;66.60;;;;;;4966838;54;21486;-37
2023/06/04 20:09:20;;;;;;;9.52;8.70;;;24.10;66.50;;;;;;4949168;54;21528;-33
2023/06/04 20:14:21;;;;;;;9.70;8.80;;;24.10;66.50;;;;;;5029933;54;21497;-35
2023/06/04 20:19:22;;;;;;;9.10;8.30;;;24.10;66.60;;;;;;5053967;54;21022;-37
2023/06/04 20:24:23;;;;;;;10.20;9.25;;;24.10;66.60;;;;;;4954701;54;21847;-33
2023/06/04 20:29:24;;;;;;;9.25;8.45;;;24.10;66.60;;;;;;4924870;54;21023;-35
2023/06/04 20:34:26;;;;;;;10.50;9.60;;;24.10;66.60;;;;;;4887959;54;21458;-35
2023/06/04 20:39:30;;;;;;;9.88;8.98;;;24.10;66.60;;;;;;4810200;54;21480;-36
2023/06/04 20:44:34;;;;;;;9.63;8.73;;;24.10;66.60;;;;;;4934877;54;21567;-31
2023/06/04 20:49:35;;;;;;;8.98;8.18;;;24.10;66.60;;;;;;4891614;54;21537;-36
2023/06/04 20:54:36;;;;;;;9.82;8.82;;;24.10;66.70;;;;;;4872814;54;21047;-36
2023/06/04 20:59:36;;;;;;;9.27;8.43;;;24.10;66.60;;;;;;4987015;54;21070;-35
2023/06/04 21:04:37;;;;;;;9.85;8.95;;;24.10;66.70;;;;;;4799443;58;21026;-31
2023/06/04 21:09:38;;;;;;;9.32;8.52;;;24.10;66.60;;;;;;4867778;54;21011;-37
2023/06/04 21:14:39;;;;;;;9.70;8.70;;;24.10;67.30;;;;;;5043882;54;21078;-34
2023/06/04 21:19:40;;;;;;;9.35;8.45;;;24.20;66.70;;;;;;4940504;54;21074;-33
2023/06/04 21:24:52;;;;;;;9.77;8.90;;;24.10;66.70;;;;;;4799628;58;21006;-32
2023/06/04 21:29:53;;;;;;;9.25;8.43;;;24.10;66.70;;;;;;4799284;58;21093;-34
2023/06/04 21:34:54;;;;;;;10.50;8.68;;;24.10;66.70;;;;;;4859884;54;21500;-33
2023/06/04 21:39:55;;;;;;;9.27;8.48;;;24.10;66.80;;;;;;4879037;54;21054;-35
2023/06/04 21:44:55;;;;;;;9.45;8.55;;;24.10;66.80;;;;;;4799295;58;21062;-37
2023/06/04 21:49:58;;;;;;;9.45;8.52;;;24.10;66.80;;;;;;4858063;53;21094;-35
2023/06/04 21:54:59;;;;;;;9.23;8.43;;;24.10;66.80;;;;;;4878494;54;21659;-36
2023/06/04 22:00:00;;;;;;;8.30;7.55;;;24.10;66.80;;;;;;4817996;54;21030;-33
2023/06/04 22:05:01;;;;;;;9.50;8.60;;;24.10;66.90;;;;;;4799311;58;21003;-34
2023/06/04 22:10:03;;;;;;;9.45;8.55;;;24.10;66.80;;;;;;4829030;54;21589;-36
2023/06/04 22:15:04;;;;;;;9.05;8.25;;;24.10;66.80;;;;;;4988470;54;21003;-34
2023/06/04 22:20:07;;;;;;;9.50;8.63;;;24.10;66.80;;;;;;4982347;54;21058;-34
2023/06/04 22:25:08;;;;;;;8.60;7.80;;;24.10;66.80;;;;;;4818751;54;21054;-36
2023/06/04 22:30:10;;;;;;;8.20;7.50;;;24.10;66.90;;;;;;4799286;58;21020;-34
2023/06/04 22:35:11;;;;;;;9.23;8.43;;;24.10;66.90;;;;;;4850479;54;21027;-27
2023/06/04 22:40:13;;;;;;;8.68;7.87;;;24.20;66.90;;;;;;4898158;54;21030;-35
2023/06/04 22:45:15;;;;;;;8.88;8.07;;;24.10;66.90;;;;;;4916868;54;21488;-33
2023/06/04 22:50:16;;;;;;;9.32;8.43;;;24.10;66.90;;;;;;4799419;58;21002;-36
2023/06/04 22:55:17;;;;;;;8.75;7.90;;;24.10;67.00;;;;;;4865444;54;21100;-37
2023/06/04 23:00:18;;;;;;;9.25;8.40;;;24.10;66.90;;;;;;4829876;54;21564;-33
2023/06/04 23:05:20;;;;;;;9.15;8.27;;;24.10;66.90;;;;;;4938043;54;21497;-33
2023/06/04 23:10:21;;;;;;;8.85;8.05;;;24.10;67.00;;;;;;4806117;54;21489;-35
2023/06/04 23:15:24;;;;;;;8.70;7.97;;;24.20;67.00;;;;;;4801615;54;20998;-33
2023/06/04 23:20:25;;;;;;;9.00;8.20;;;24.10;67.00;;;;;;4816449;54;21488;-37
2023/06/04 23:25:26;;;;;;;8.70;7.90;;;24.10;67.00;;;;;;5018577;54;20993;-35
2023/06/04 23:30:27;;;;;;;8.40;7.68;;;24.10;67.00;;;;;;4800385;54;22191;-37
2023/06/04 23:35:28;;;;;;;9.07;8.27;;;24.10;67.00;;;;;;4816553;54;21098;-35
2023/06/04 23:40:28;;;;;;;8.40;7.60;;;24.10;67.00;;;;;;4860235;54;21461;-36
2023/06/04 23:45:29;;;;;;;9.30;8.40;;;24.10;67.00;;;;;;4817779;54;21034;-35
2023/06/04 23:50:30;;;;;;;8.57;7.78;;;24.10;67.00;;;;;;4895319;54;21015;-34
2023/06/04 23:55:31;;;;;;;8.60;7.82;;;24.20;67.10;;;;;;5223672;54;20995;-35
